createdAt,value
2023-03-02T00:01:26.760Z,101467.75
2023-03-02T00:03:54.169Z,101469.63
2023-03-02T00:06:20.748Z,101468.25
2023-03-02T00:08:47.349Z,101471.13
2023-03-02T00:11:15.516Z,101465.13
2023-03-02T00:13:43.154Z,101466.69
2023-03-02T00:16:09.890Z,101463.19
2023-03-02T00:18:36.514Z,101470.41
2023-03-02T00:21:03.088Z,101472.72
2023-03-02T00:23:29.845Z,101468.94
2023-03-02T00:25:56.405Z,101459.63
2023-03-02T00:28:22.960Z,101461.22
2023-03-02T00:30:49.474Z,101460.53
2023-03-02T00:33:16.120Z,101463.81
2023-03-02T00:35:42.648Z,101465.00
2023-03-02T00:38:09.336Z,101467.06
2023-03-02T00:40:36.245Z,101457.72
2023-03-02T00:43:02.982Z,101464.47
2023-03-02T00:45:29.932Z,101457.59
2023-03-02T00:47:56.563Z,101467.03
2023-03-02T00:50:23.289Z,101474.09
2023-03-02T00:52:49.818Z,101472.25
2023-03-02T00:55:16.413Z,101477.72
2023-03-02T00:57:42.982Z,101470.16
2023-03-02T01:00:10.199Z,101464.81
2023-03-02T01:02:44.201Z,101470.50
2023-03-02T01:05:14.330Z,101467.06
2023-03-02T01:07:40.974Z,101472.22
2023-03-02T01:10:09.038Z,101463.09
2023-03-02T01:12:35.797Z,101464.66
2023-03-02T01:15:03.252Z,101468.09
2023-03-02T01:17:29.858Z,101460.34
2023-03-02T01:19:57.064Z,101465.16
2023-03-02T01:22:24.022Z,101459.47
2023-03-02T01:24:53.150Z,101458.13
2023-03-02T01:27:19.926Z,101457.44
2023-03-02T01:29:46.467Z,101450.03
2023-03-02T01:32:13.033Z,101454.84
2023-03-02T01:34:39.616Z,101455.00
2023-03-02T01:37:06.354Z,101456.75
2023-03-02T01:39:32.901Z,101446.44
2023-03-02T01:46:22.253Z,101429.25
2023-03-02T01:49:05.565Z,101441.28
2023-03-02T01:51:46.980Z,101430.47
2023-03-02T01:54:22.873Z,101434.22
2023-03-02T01:56:58.170Z,101440.09
2023-03-02T01:59:28.580Z,101427.56
2023-03-02T02:01:58.392Z,101424.09
2023-03-02T02:04:26.956Z,101433.56
2023-03-02T02:07:01.066Z,101419.97
2023-03-02T02:09:31.964Z,101422.72
2023-03-02T02:11:58.947Z,101419.41
2023-03-02T02:14:25.554Z,101412.00
2023-03-02T02:16:53.000Z,101411.38
2023-03-02T02:19:38.217Z,101416.53
2023-03-02T02:22:04.900Z,101410.53
2023-03-02T02:24:43.668Z,101403.31
2023-03-02T02:27:12.749Z,101399.50
2023-03-02T02:29:45.461Z,101393.53
2023-03-02T02:32:24.111Z,101399.22
2023-03-02T02:34:56.677Z,101398.31
2023-03-02T02:37:31.700Z,101393.19
2023-03-02T02:40:01.049Z,101394.56
2023-03-02T02:42:32.092Z,101383.22
2023-03-02T02:45:05.245Z,101390.28
2023-03-02T02:47:32.326Z,101398.69
2023-03-02T02:49:58.995Z,101401.97
2023-03-02T02:52:28.556Z,101394.69
2023-03-02T02:54:57.749Z,101397.47
2023-03-02T02:57:28.418Z,101393.69
2023-03-02T02:59:58.017Z,101385.28
2023-03-02T03:02:27.678Z,101391.13
2023-03-02T03:05:03.005Z,101384.94
2023-03-02T03:07:32.804Z,101394.91
2023-03-02T03:10:10.616Z,101388.03
2023-03-02T03:12:39.851Z,101397.66
2023-03-02T03:15:08.503Z,101386.50
2023-03-02T03:17:35.236Z,101392.66
2023-03-02T03:20:06.522Z,101386.66
2023-03-02T03:22:38.016Z,101390.25
2023-03-02T03:25:06.500Z,101394.41
2023-03-02T03:27:33.480Z,101390.44
2023-03-02T03:30:02.421Z,101397.31
2023-03-02T03:32:34.303Z,101392.16
2023-03-02T03:35:02.569Z,101399.19
2023-03-02T03:37:32.074Z,101393.97
2023-03-02T03:39:58.555Z,101399.34
2023-03-02T03:42:25.300Z,101396.78
2023-03-02T03:44:54.054Z,101401.59
2023-03-02T03:47:21.226Z,101399.47
2023-03-02T03:49:49.346Z,101412.09
2023-03-02T03:52:16.226Z,101410.19
2023-03-02T03:54:43.212Z,101405.53
2023-03-02T03:57:11.963Z,101406.25
2023-03-02T03:59:38.558Z,101405.06
2023-03-02T04:02:06.080Z,101406.41
2023-03-02T04:04:36.229Z,101406.94
2023-03-02T04:07:10.085Z,101405.38
2023-03-02T04:09:38.059Z,101404.31
2023-03-02T04:12:07.660Z,101399.81
2023-03-02T04:14:34.985Z,101407.84
2023-03-02T04:17:05.298Z,101400.66
2023-03-02T04:19:33.000Z,101412.25
2023-03-02T04:22:01.719Z,101401.84
2023-03-02T04:24:28.336Z,101404.09
2023-03-02T04:26:57.045Z,101397.72
2023-03-02T04:29:23.994Z,101400.38
2023-03-02T04:31:51.669Z,101394.19
2023-03-02T04:34:20.244Z,101398.31
2023-03-02T04:36:47.683Z,101403.13
2023-03-02T04:39:17.720Z,101402.09
2023-03-02T04:41:48.700Z,101400.28
2023-03-02T04:44:17.121Z,101400.53
2023-03-02T04:46:45.128Z,101397.78
2023-03-02T04:49:12.621Z,101408.09
2023-03-02T04:51:42.257Z,101401.41
2023-03-02T04:54:15.724Z,101396.09
2023-03-02T04:56:42.371Z,101395.91
2023-03-02T04:59:08.911Z,101395.25
2023-03-02T05:01:35.808Z,101388.75
2023-03-02T05:04:03.083Z,101395.13
2023-03-02T05:06:30.122Z,101389.13
2023-03-02T05:08:59.724Z,101391.38
2023-03-02T05:11:27.241Z,101387.78
2023-03-02T05:13:59.969Z,101390.53
2023-03-02T05:16:29.078Z,101394.34
2023-03-02T05:18:55.948Z,101390.94
2023-03-02T05:21:22.614Z,101388.97
2023-03-02T05:23:49.117Z,101397.06
2023-03-02T05:26:16.078Z,101386.41
2023-03-02T05:28:43.017Z,101397.13
2023-03-02T05:31:18.077Z,101388.72
2023-03-02T05:33:45.148Z,101387.84
2023-03-02T05:36:11.619Z,101393.69
2023-03-02T05:38:38.149Z,101384.72
2023-03-02T05:41:04.953Z,101383.47
2023-03-02T05:43:31.700Z,101382.50
2023-03-02T05:46:00.396Z,101379.94
2023-03-02T05:48:28.111Z,101384.78
2023-03-02T05:50:54.585Z,101377.84
2023-03-02T05:53:21.120Z,101380.09
2023-03-02T05:55:48.160Z,101386.41
2023-03-02T05:58:17.100Z,101385.03
2023-03-02T06:00:44.787Z,101388.38
2023-03-02T06:03:11.761Z,101389.97
2023-03-02T06:05:38.723Z,101375.94
2023-03-02T06:08:05.856Z,101396.88
2023-03-02T06:10:32.977Z,101396.19
2023-03-02T06:12:59.545Z,101399.03
2023-03-02T06:15:29.565Z,101396.22
2023-03-02T06:17:57.350Z,101402.47
2023-03-02T06:20:24.085Z,101403.53
2023-03-02T06:22:50.670Z,101401.81
2023-03-02T06:25:20.078Z,101407.31
2023-03-02T06:27:47.486Z,101408.69
2023-03-02T06:30:16.507Z,101412.97
2023-03-02T06:32:43.273Z,101409.75
2023-03-02T06:35:11.208Z,101420.81
2023-03-02T06:37:38.058Z,101425.94
2023-03-02T06:40:10.304Z,101424.09
2023-03-02T06:42:38.081Z,101424.25
2023-03-02T06:45:06.138Z,101428.19
2023-03-02T06:47:33.303Z,101428.03
2023-03-02T06:50:00.691Z,101422.78
2023-03-02T06:52:27.446Z,101424.47
2023-03-02T06:54:54.819Z,101420.06
2023-03-02T06:57:21.681Z,101418.16
2023-03-02T06:59:48.458Z,101419.22
2023-03-02T07:02:15.009Z,101424.91
2023-03-02T07:04:41.497Z,101420.81
2023-03-02T07:07:08.011Z,101421.13
2023-03-02T07:09:34.739Z,101420.19
2023-03-02T07:12:01.332Z,101421.63
2023-03-02T07:14:27.870Z,101416.41
2023-03-02T07:16:57.267Z,101420.81
2023-03-02T07:19:23.941Z,101422.81
2023-03-02T07:21:50.472Z,101416.88
2023-03-02T07:24:17.033Z,101423.03
2023-03-02T07:26:43.613Z,101422.56
2023-03-02T07:29:10.154Z,101431.16
2023-03-02T07:31:36.754Z,101423.66
2023-03-02T07:34:03.546Z,101424.53
2023-03-02T07:36:30.284Z,101426.88
2023-03-02T07:38:57.478Z,101428.44
2023-03-02T07:41:24.153Z,101423.16
2023-03-02T07:43:50.689Z,101427.16
2023-03-02T07:46:17.281Z,101424.59
2023-03-02T07:48:43.905Z,101430.59
2023-03-02T07:51:10.480Z,101432.50
2023-03-02T07:53:37.114Z,101431.81
2023-03-02T07:56:09.475Z,101430.44
2023-03-02T07:58:36.986Z,101430.63
2023-03-02T08:01:04.373Z,101432.00
2023-03-02T08:03:31.028Z,101429.09
2023-03-02T08:05:57.740Z,101434.75
2023-03-02T08:08:24.331Z,101429.09
2023-03-02T08:10:50.862Z,101428.22
2023-03-02T08:13:17.433Z,101437.19
2023-03-02T08:15:44.008Z,101424.78
2023-03-02T08:18:10.542Z,101428.22
2023-03-02T08:20:37.433Z,101422.69
2023-03-02T08:23:04.001Z,101434.38
2023-03-02T08:25:30.584Z,101434.69
2023-03-02T08:27:57.198Z,101425.09
2023-03-02T08:30:23.702Z,101423.66
2023-03-02T08:32:50.216Z,101425.91
2023-03-02T08:35:17.371Z,101420.66
2023-03-02T08:37:43.886Z,101417.69
2023-03-02T08:40:11.130Z,101425.50
2023-03-02T08:42:37.771Z,101421.91
2023-03-02T08:45:04.821Z,101423.59
2023-03-02T08:47:32.380Z,101417.41
2023-03-02T08:49:58.937Z,101415.94
2023-03-02T08:52:25.565Z,101411.97
2023-03-02T08:54:52.163Z,101413.50
2023-03-02T08:57:20.981Z,101413.16
2023-03-02T08:59:47.896Z,101406.47
2023-03-02T09:02:14.512Z,101403.94
2023-03-02T09:04:41.773Z,101403.09
2023-03-02T09:07:08.624Z,101391.94
2023-03-02T09:09:35.277Z,101394.97
2023-03-02T09:12:02.271Z,101399.84
2023-03-02T09:14:28.866Z,101387.97
2023-03-02T09:16:55.491Z,101399.16
2023-03-02T09:19:22.050Z,101395.28
2023-03-02T09:21:49.353Z,101393.00
2023-03-02T09:24:17.766Z,101404.28
2023-03-02T09:26:44.458Z,101392.50
2023-03-02T09:29:11.008Z,101386.88
2023-03-02T09:31:38.316Z,101398.41
2023-03-02T09:34:05.523Z,101395.25
2023-03-02T09:36:32.736Z,101398.06
2023-03-02T09:38:59.517Z,101394.78
2023-03-02T09:41:36.162Z,101399.06
2023-03-02T09:44:40.622Z,101394.97
2023-03-02T09:47:35.183Z,101402.81
2023-03-02T09:50:27.314Z,101405.78
2023-03-02T09:53:13.885Z,101402.81
2023-03-02T09:55:40.540Z,101405.31
2023-03-02T09:58:15.463Z,101405.47
2023-03-02T10:00:43.922Z,101405.31
2023-03-02T10:03:22.408Z,101403.56
2023-03-02T10:05:51.816Z,101410.44
2023-03-02T10:08:20.901Z,101395.78
2023-03-02T10:10:59.786Z,101403.59
2023-03-02T10:13:49.378Z,101413.09
2023-03-02T10:16:24.295Z,101404.63
2023-03-02T10:19:10.029Z,101411.19
2023-03-02T10:21:44.546Z,101404.41
2023-03-02T10:24:38.318Z,101395.53
2023-03-02T10:27:17.879Z,101393.56
2023-03-02T10:29:49.819Z,101394.34
2023-03-02T10:32:29.379Z,101389.16
2023-03-02T10:34:56.521Z,101389.19
2023-03-02T10:37:28.592Z,101391.81
2023-03-02T10:39:56.086Z,101391.78
2023-03-02T10:42:30.812Z,101392.19
2023-03-02T10:45:08.238Z,101395.28
2023-03-02T10:47:34.883Z,101382.03
2023-03-02T10:50:01.474Z,101389.94
2023-03-02T10:52:29.267Z,101378.03
2023-03-02T10:55:04.667Z,101388.59
2023-03-02T10:57:35.636Z,101379.91
2023-03-02T11:00:21.088Z,101382.75
2023-03-02T11:02:55.475Z,101383.97
2023-03-02T11:05:30.038Z,101382.22
2023-03-02T11:08:05.367Z,101373.38
2023-03-02T11:10:37.452Z,101369.94
2023-03-02T11:13:23.664Z,101372.88
2023-03-02T11:15:52.461Z,101376.28
2023-03-02T11:18:32.859Z,101379.91
2023-03-02T11:21:15.125Z,101365.66
2023-03-02T11:23:53.681Z,101370.28
2023-03-02T11:26:27.745Z,101361.53
2023-03-02T11:29:26.719Z,101358.81
2023-03-02T11:32:08.692Z,101369.84
2023-03-02T11:34:53.547Z,101356.88
2023-03-02T11:37:27.087Z,101363.84
2023-03-02T11:40:05.812Z,101358.41
2023-03-02T11:42:44.204Z,101352.44
2023-03-02T11:45:13.949Z,101350.09
2023-03-02T11:47:47.313Z,101353.91
2023-03-02T11:50:16.768Z,101352.22
2023-03-02T11:52:52.005Z,101350.78
2023-03-02T11:55:24.664Z,101348.59
2023-03-02T11:58:03.100Z,101342.59
2023-03-02T12:00:42.529Z,101346.41
2023-03-02T12:03:15.225Z,101342.22
2023-03-02T12:05:45.746Z,101342.03
2023-03-02T12:08:15.335Z,101335.00
2023-03-02T12:10:45.525Z,101334.59
2023-03-02T12:13:17.563Z,101333.94
2023-03-02T12:15:51.148Z,101329.00
2023-03-02T12:18:20.623Z,101328.63
2023-03-02T12:21:10.564Z,101316.19
2023-03-02T12:23:44.234Z,101320.69
2023-03-02T12:26:19.966Z,101314.88
2023-03-02T12:29:06.487Z,101322.91
2023-03-02T12:31:51.770Z,101319.19
2023-03-02T12:34:24.160Z,101317.38
2023-03-02T12:36:55.761Z,101319.50
2023-03-02T12:39:49.195Z,101313.22
2023-03-02T12:42:38.916Z,101311.72
2023-03-02T12:45:36.205Z,101310.44
2023-03-02T12:48:15.491Z,101301.72
2023-03-02T12:50:43.012Z,101300.19
2023-03-02T12:53:18.133Z,101297.59
2023-03-02T12:55:45.601Z,101293.38
2023-03-02T12:58:18.932Z,101282.72
2023-03-02T13:00:54.447Z,101276.84
2023-03-02T13:03:21.356Z,101273.63
2023-03-02T13:05:48.051Z,101269.78
2023-03-02T13:08:24.312Z,101273.00
2023-03-02T13:10:56.653Z,101263.19
2023-03-02T13:13:26.757Z,101261.28
2023-03-02T13:16:02.865Z,101257.19
2023-03-02T13:18:32.192Z,101244.00
2023-03-02T13:21:00.417Z,101251.50
2023-03-02T13:23:29.579Z,101249.09
2023-03-02T13:25:58.916Z,101247.91
2023-03-02T13:28:39.357Z,101240.44
2023-03-02T13:31:17.855Z,101242.97
2023-03-02T13:33:46.334Z,101228.91
2023-03-02T13:36:28.560Z,101228.81
2023-03-02T13:38:59.120Z,101232.72
2023-03-02T13:41:28.746Z,101238.56
2023-03-02T13:43:56.128Z,101241.00
2023-03-02T13:46:22.678Z,101236.00
2023-03-02T13:49:10.282Z,101237.44
2023-03-02T13:51:46.425Z,101247.25
2023-03-02T13:54:22.094Z,101233.97
2023-03-02T13:56:50.940Z,101241.50
2023-03-02T13:59:19.213Z,101236.31
2023-03-02T14:01:47.098Z,101225.75
2023-03-02T14:04:21.299Z,101224.47
2023-03-02T14:06:47.908Z,101219.56
2023-03-02T14:09:14.869Z,101216.84
2023-03-02T14:11:46.641Z,101216.03
2023-03-02T14:14:19.762Z,101206.69
2023-03-02T14:16:46.400Z,101208.53
2023-03-02T14:19:13.676Z,101211.19
2023-03-02T14:21:40.995Z,101201.59
2023-03-02T14:24:07.649Z,101204.78
2023-03-02T14:26:46.137Z,101206.00
2023-03-02T14:29:12.709Z,101209.97
2023-03-02T14:31:39.262Z,101204.38
2023-03-02T14:34:05.783Z,101203.84
2023-03-02T14:36:33.872Z,101192.75
2023-03-02T14:39:04.813Z,101202.00
2023-03-02T14:41:34.402Z,101202.47
2023-03-02T14:44:04.943Z,101196.09
2023-03-02T14:46:31.503Z,101204.97
2023-03-02T14:48:58.055Z,101197.38
2023-03-02T14:51:28.141Z,101192.19
2023-03-02T14:53:58.860Z,101198.72
2023-03-02T14:56:25.669Z,101195.75
2023-03-02T14:58:53.184Z,101189.47
2023-03-02T15:01:21.154Z,101188.00
2023-03-02T15:03:47.766Z,101193.69
2023-03-02T15:06:29.674Z,101185.50
2023-03-02T15:08:58.147Z,101183.75
2023-03-02T15:11:26.440Z,101184.00
2023-03-02T15:13:53.506Z,101172.72
2023-03-02T15:16:20.329Z,101176.00
2023-03-02T15:18:52.154Z,101181.16
2023-03-02T15:21:22.234Z,101185.22
2023-03-02T15:23:49.276Z,101171.63
2023-03-02T15:26:15.764Z,101178.78
2023-03-02T15:28:42.851Z,101179.41
2023-03-02T15:31:11.586Z,101182.66
2023-03-02T15:33:38.245Z,101183.09
2023-03-02T15:36:06.992Z,101178.63
2023-03-02T15:38:35.631Z,101164.53
2023-03-02T15:41:12.751Z,101170.78
2023-03-02T15:43:39.665Z,101172.28
2023-03-02T15:46:06.808Z,101163.56
2023-03-02T15:48:33.315Z,101172.78
2023-03-02T15:51:04.817Z,101170.34
2023-03-02T15:53:36.106Z,101182.72
2023-03-02T15:56:09.217Z,101180.09
2023-03-02T15:58:35.933Z,101181.94
2023-03-02T16:01:10.096Z,101173.19
2023-03-02T16:03:37.628Z,101171.41
2023-03-02T16:06:05.012Z,101183.13
2023-03-02T16:08:31.539Z,101178.41
2023-03-02T16:11:00.412Z,101190.94
2023-03-02T16:13:28.233Z,101190.09
2023-03-02T16:15:54.695Z,101180.75
2023-03-02T16:18:21.320Z,101186.41
2023-03-02T16:20:48.225Z,101187.09
2023-03-02T16:23:15.947Z,101188.72
2023-03-02T16:25:43.775Z,101185.16
2023-03-02T16:28:15.058Z,101193.09
2023-03-02T16:30:44.148Z,101187.25
2023-03-02T16:33:14.509Z,101187.84
2023-03-02T16:35:41.497Z,101186.53
2023-03-02T16:38:09.749Z,101189.63
2023-03-02T16:40:39.902Z,101196.75
2023-03-02T16:43:08.826Z,101197.31
2023-03-02T16:45:35.546Z,101191.59
2023-03-02T16:48:03.436Z,101201.78
2023-03-02T16:50:30.433Z,101221.22
2023-03-02T16:52:58.496Z,101203.97
2023-03-02T16:55:25.506Z,101216.16
2023-03-02T16:57:52.441Z,101212.09
2023-03-02T17:00:20.620Z,101210.34
2023-03-02T17:02:48.325Z,101213.03
2023-03-02T17:05:16.780Z,101215.81
2023-03-02T17:07:43.463Z,101210.22
2023-03-02T17:10:14.542Z,101222.41
2023-03-02T17:12:41.283Z,101223.66
2023-03-02T17:15:08.445Z,101230.22
2023-03-02T17:17:34.955Z,101229.03
2023-03-02T17:20:01.603Z,101234.72
2023-03-02T17:22:28.168Z,101237.13
2023-03-02T17:24:54.666Z,101248.34
2023-03-02T17:27:25.305Z,101239.53
2023-03-02T17:29:54.145Z,101240.50
2023-03-02T17:32:22.590Z,101247.66
2023-03-02T17:34:50.453Z,101246.81
2023-03-02T17:37:19.962Z,101255.84
2023-03-02T17:39:49.947Z,101264.25
2023-03-02T17:42:16.546Z,101268.09
2023-03-02T17:44:44.858Z,101266.72
2023-03-02T17:47:13.584Z,101265.19
2023-03-02T17:49:43.540Z,101267.16
2023-03-02T17:52:10.325Z,101272.63
2023-03-02T17:54:37.000Z,101282.66
2023-03-02T17:57:04.104Z,101280.38
2023-03-02T17:59:31.693Z,101294.25
2023-03-02T18:01:58.299Z,101286.66
2023-03-02T18:04:24.952Z,101294.84
2023-03-02T18:06:54.000Z,101296.94
2023-03-02T18:09:20.846Z,101295.50
2023-03-02T18:11:47.486Z,101306.28
2023-03-02T18:14:16.392Z,101314.47
2023-03-02T18:16:43.000Z,101312.19
2023-03-02T18:19:09.574Z,101327.41
2023-03-02T18:21:36.399Z,101324.63
2023-03-02T18:24:03.997Z,101319.88
2023-03-02T18:26:30.656Z,101326.00
2023-03-02T18:28:57.300Z,101332.94
2023-03-02T18:31:24.021Z,101337.22
2023-03-02T18:33:50.724Z,101335.34
2023-03-02T18:36:17.920Z,101325.34
2023-03-02T18:38:44.752Z,101337.41
2023-03-02T18:41:12.799Z,101338.28
2023-03-02T18:43:41.657Z,101347.31
2023-03-02T18:46:19.498Z,101346.00
2023-03-02T18:48:46.708Z,101348.22
2023-03-02T18:51:13.376Z,101350.59
2023-03-02T18:53:40.904Z,101347.19
2023-03-02T18:56:07.585Z,101362.00
2023-03-02T18:58:34.558Z,101360.97
2023-03-02T19:01:01.720Z,101357.84
2023-03-02T19:03:30.094Z,101362.09
2023-03-02T19:05:58.226Z,101368.91
2023-03-02T19:08:25.670Z,101365.66
2023-03-02T19:10:53.731Z,101367.34
2023-03-02T19:13:21.000Z,101366.97
2023-03-02T19:15:47.794Z,101367.19
2023-03-02T19:18:17.550Z,101366.59
2023-03-02T19:20:49.302Z,101374.59
2023-03-02T19:23:16.910Z,101370.72
2023-03-02T19:25:44.506Z,101374.44
2023-03-02T19:28:11.742Z,101380.69
2023-03-02T19:30:39.921Z,101377.91
2023-03-02T19:33:09.089Z,101378.59
2023-03-02T19:35:37.536Z,101382.44
2023-03-02T19:38:05.014Z,101387.72
2023-03-02T19:40:31.997Z,101384.63
2023-03-02T19:42:58.535Z,101390.66
2023-03-02T19:45:29.045Z,101387.88
2023-03-02T19:47:57.895Z,101382.25
2023-03-02T19:50:25.886Z,101386.69
2023-03-02T19:52:54.612Z,101390.66
2023-03-02T19:55:22.166Z,101390.28
2023-03-02T19:57:56.387Z,101398.78
2023-03-02T20:00:23.816Z,101405.28
2023-03-02T20:02:50.472Z,101411.63
2023-03-02T20:05:17.451Z,101415.59
2023-03-02T20:07:44.008Z,101409.44
2023-03-02T20:10:11.346Z,101421.63
2023-03-02T20:12:37.887Z,101413.38
2023-03-02T20:15:06.202Z,101421.06
2023-03-02T20:17:33.658Z,101415.66
2023-03-02T20:20:01.202Z,101427.72
2023-03-02T20:22:27.926Z,101424.47
2023-03-02T20:24:54.564Z,101423.75
2023-03-02T20:27:21.134Z,101428.09
2023-03-02T20:29:48.273Z,101422.81
2023-03-02T20:32:15.006Z,101419.72
2023-03-02T20:34:42.839Z,101418.34
2023-03-02T20:37:11.785Z,101433.84
2023-03-02T20:39:40.166Z,101417.19
2023-03-02T20:42:07.300Z,101423.97
2023-03-02T20:44:34.383Z,101426.81
2023-03-02T20:47:06.116Z,101427.47
2023-03-02T20:49:33.125Z,101427.28
2023-03-02T20:52:00.719Z,101433.91
2023-03-02T20:54:34.232Z,101426.22
2023-03-02T20:57:00.928Z,101427.56
2023-03-02T20:59:28.363Z,101418.38
2023-03-02T21:01:55.182Z,101421.81
2023-03-02T21:04:21.960Z,101418.09
2023-03-02T21:06:48.762Z,101420.34
2023-03-02T21:09:17.761Z,101413.38
2023-03-02T21:11:45.727Z,101417.88
2023-03-02T21:14:15.755Z,101423.41
2023-03-02T21:16:44.597Z,101418.47
2023-03-02T21:19:15.055Z,101421.44
2023-03-02T21:21:42.554Z,101423.09
2023-03-02T21:24:16.639Z,101415.53
2023-03-02T21:26:44.990Z,101427.75
2023-03-02T21:29:12.787Z,101421.72
2023-03-02T21:31:42.075Z,101430.69
2023-03-02T21:34:08.617Z,101419.50
2023-03-02T21:36:35.365Z,101419.59
2023-03-02T21:39:04.075Z,101405.50
2023-03-02T21:41:30.636Z,101409.72
2023-03-02T21:43:57.659Z,101412.97
2023-03-02T21:46:25.338Z,101413.75
2023-03-02T21:48:52.301Z,101406.84
2023-03-02T21:51:19.613Z,101411.75
2023-03-02T21:53:46.699Z,101410.06
2023-03-02T21:56:21.678Z,101407.69
2023-03-02T21:58:53.585Z,101408.72
2023-03-02T22:01:20.902Z,101415.41
2023-03-02T22:03:48.005Z,101413.03
2023-03-02T22:06:25.709Z,101411.56
2023-03-02T22:08:53.331Z,101406.84
2023-03-02T22:11:23.762Z,101420.69
2023-03-02T22:13:52.135Z,101412.91
2023-03-02T22:16:21.203Z,101411.63
2023-03-02T22:18:49.422Z,101410.63
2023-03-02T22:21:18.928Z,101412.31
2023-03-02T22:23:45.515Z,101419.28
2023-03-02T22:26:16.106Z,101421.66
2023-03-02T22:28:43.293Z,101421.53
2023-03-02T22:31:21.435Z,101413.59
2023-03-02T22:33:49.527Z,101416.34
2023-03-02T22:36:23.813Z,101418.75
2023-03-02T22:38:50.563Z,101415.19
2023-03-02T22:41:19.496Z,101409.88
2023-03-02T22:43:46.863Z,101422.25
2023-03-02T22:46:20.448Z,101420.75
2023-03-02T22:48:51.940Z,101415.22
2023-03-02T22:51:24.338Z,101428.84
2023-03-02T22:53:56.642Z,101423.09
2023-03-02T22:56:43.288Z,101435.94
2023-03-02T22:59:27.080Z,101430.38
2023-03-02T23:02:13.926Z,101433.63
2023-03-02T23:04:41.367Z,101430.78
2023-03-02T23:07:21.092Z,101443.38
2023-03-02T23:09:48.337Z,101433.22
2023-03-02T23:12:19.529Z,101427.50
2023-03-02T23:14:53.972Z,101422.25
2023-03-02T23:17:24.564Z,101426.09
2023-03-02T23:19:51.419Z,101414.97
2023-03-02T23:22:17.906Z,101420.13
2023-03-02T23:24:44.611Z,101424.47
2023-03-02T23:27:11.281Z,101425.09
2023-03-02T23:29:37.971Z,101430.28
2023-03-02T23:32:04.684Z,101428.88
2023-03-02T23:34:31.398Z,101435.81
2023-03-02T23:36:58.909Z,101430.22
2023-03-02T23:39:25.948Z,101429.97
2023-03-02T23:41:52.706Z,101425.34
2023-03-02T23:44:19.609Z,101431.28
2023-03-02T23:46:46.971Z,101429.13
2023-03-02T23:49:13.692Z,101416.03
2023-03-02T23:51:40.778Z,101430.03
2023-03-02T23:54:07.869Z,101419.66
2023-03-02T23:56:34.434Z,101431.75
2023-03-02T23:59:02.132Z,101430.25
